Time;durP1;ratioP1;P1;durP2;ratioP2;P2;SDS_P1;SDS_P2;PMS_P1;PMS_P2;Temp;Humidity;BMP_temperature;BMP_pressure;BME280_temperature;BME280_humidity;BME280_pressure;Samples;Min_cycle;Max_cycle;Signal;HPM_P1;HPM_P2
2021/05/06 00:33:03;;;;;;;4.65;1.72;;;;;;;12.40;58.14;98445.94;1705663;83;21218;-69
2021/05/06 00:35:36;;;;;;;5.70;1.75;;;;;;;12.36;58.00;98438.17;1686027;84;21150;-68
2021/05/06 00:43:51;;;;;;;3.40;1.72;;;;;;;12.28;57.99;98433.64;1732282;82;21064;-69
2021/05/06 01:06:22;;;;;;;3.10;1.67;;;;;;;12.19;57.62;98411.73;1657512;86;21187;-68
2021/05/06 01:08:58;;;;;;;2.62;1.60;;;;;;;12.17;57.70;98405.75;1658460;86;21200;-68
2021/05/06 01:11:40;;;;;;;5.83;1.70;;;;;;;12.17;57.52;98405.19;1665226;85;21605;-67
2021/05/06 01:14:08;;;;;;;1.77;1.45;;;;;;;12.16;57.32;98404.16;1664597;85;21232;-69
2021/05/06 01:16:58;;;;;;;5.10;1.57;;;;;;;12.15;57.27;98406.69;1667349;85;21128;-67
2021/05/06 01:19:30;;;;;;;4.75;1.57;;;;;;;12.10;57.41;98401.44;1665689;85;21172;-68
2021/05/06 01:22:12;;;;;;;4.50;1.70;;;;;;;12.04;57.53;98404.44;1665738;85;21173;-68
2021/05/06 01:24:46;;;;;;;4.73;1.80;;;;;;;12.00;57.32;98406.33;1667645;85;21120;-68
2021/05/06 01:27:27;;;;;;;4.55;1.82;;;;;;;11.99;57.22;98410.22;1650490;85;21427;-67
2021/05/06 01:30:05;;;;;;;4.12;2.20;;;;;;;11.98;57.15;98410.02;1667183;85;21140;-67
2021/05/06 01:32:44;;;;;;;2.42;1.72;;;;;;;11.98;57.09;98407.25;1641426;85;21148;-68
2021/05/06 01:35:18;;;;;;;5.08;1.45;;;;;;;11.99;56.98;98403.33;1667165;85;21189;-68
2021/05/06 01:38:07;;;;;;;5.92;1.50;;;;;;;11.99;56.87;98407.47;1665029;85;21586;-68
2021/05/06 01:43:45;;;;;;;6.00;2.17;;;;;;;12.02;56.83;98385.26;1806368;78;28383;-68
2021/05/06 02:00:25;;;;;;;6.28;1.55;;;;;;;12.02;56.83;98374.22;1795037;78;22762;-68
2021/05/06 02:03:01;;;;;;;5.75;1.80;;;;;;;11.95;56.86;98375.42;1770678;80;21156;-68
2021/05/06 02:05:30;;;;;;;2.67;1.50;;;;;;;11.91;57.02;98366.48;1770596;80;21256;-68
2021/05/06 02:08:01;;;;;;;3.50;1.95;;;;;;;11.88;57.38;98371.34;1766770;80;21122;-68
2021/05/06 02:10:33;;;;;;;6.00;1.60;;;;;;;11.84;57.15;98373.20;1766304;80;21764;-68
2021/05/06 02:13:04;;;;;;;3.37;1.30;;;;;;;11.80;57.16;98370.34;1768824;80;21262;-69
2021/05/06 02:15:59;;;;;;;4.85;1.70;;;;;;;11.77;57.26;98365.54;1761157;80;20964;-68
2021/05/06 02:18:32;;;;;;;5.08;1.37;;;;;;;11.77;57.38;98367.52;1761102;80;21348;-69
2021/05/06 02:21:07;;;;;;;7.42;2.10;;;;;;;11.75;57.60;98362.93;1766934;80;22281;-69
2021/05/06 02:23:39;;;;;;;5.03;1.80;;;;;;;11.69;57.64;98370.66;1753911;80;21573;-68
2021/05/06 02:26:28;;;;;;;4.58;1.98;;;;;;;11.65;57.78;98368.41;1739776;80;21157;-70
2021/05/06 02:28:59;;;;;;;8.28;1.75;;;;;;;11.61;57.85;98376.59;1742965;81;21185;-67
2021/05/06 02:31:34;;;;;;;2.70;1.67;;;;;;;11.56;58.08;98369.95;1732055;80;21378;-69
2021/05/06 02:34:15;;;;;;;2.77;1.98;;;;;;;11.52;58.09;98367.67;1764386;80;21105;-68
2021/05/06 02:37:01;;;;;;;4.47;1.72;;;;;;;11.46;58.31;98367.15;1765605;80;21129;-68
2021/05/06 02:39:29;;;;;;;4.08;1.52;;;;;;;11.43;58.39;98376.11;1762661;80;21129;-68
2021/05/06 02:42:00;;;;;;;4.10;1.90;;;;;;;11.39;58.47;98392.59;1770038;80;22257;-68
2021/05/06 02:44:35;;;;;;;10.63;2.20;;;;;;;11.36;58.57;98378.09;1744148;80;21122;-68
2021/05/06 02:47:09;;;;;;;10.20;1.77;;;;;;;11.34;58.77;98377.67;1760496;80;21177;-70
2021/05/06 02:49:47;;;;;;;3.25;1.45;;;;;;;11.29;58.94;98371.03;1768550;80;21113;-68
2021/05/06 02:52:28;;;;;;;8.68;1.60;;;;;;;11.26;59.08;98360.72;1769560;80;21244;-68
2021/05/06 02:55:10;;;;;;;5.05;1.80;;;;;;;11.30;59.20;98376.77;1796435;79;22807;-68
2021/05/06 02:57:58;;;;;;;3.85;2.70;;;;;;;11.25;59.28;98371.50;1760630;80;21148;-69
2021/05/06 03:03:19;;;;;;;9.15;1.98;;;;;;;11.23;59.55;98376.56;1748247;80;21127;-69
2021/05/06 03:06:18;;;;;;;5.90;1.87;;;;;;;11.18;60.01;98376.25;1764147;80;21069;-69
2021/05/06 03:08:51;;;;;;;5.85;2.00;;;;;;;11.13;60.06;98379.26;1771123;80;21136;-69
2021/05/06 03:11:37;;;;;;;5.53;1.90;;;;;;;11.09;60.21;98370.89;1769833;80;21571;-69
2021/05/06 03:25:11;;;;;;;6.42;3.17;;;;;;;11.25;60.46;98379.78;1711174;82;21602;-67
2021/05/06 03:27:48;;;;;;;5.72;2.10;;;;;;;11.26;60.47;98380.02;1718211;82;21181;-69
2021/05/06 03:34:37;;;;;;;7.55;2.47;;;;;;;11.25;60.67;98388.86;1692870;83;21673;-68
2021/05/06 03:36:09;;;;;;;4.10;1.82;;;;;;;11.22;60.71;98395.65;1689135;83;21196;-68
2021/05/06 04:16:09;;;;;;;8.73;2.20;;;;;;;11.57;61.46;98436.38;1761493;79;22141;-67
2021/05/06 04:18:36;;;;;;;7.92;2.10;;;;;;;11.64;61.20;98452.31;1731361;82;21185;-68
2021/05/06 04:27:09;;;;;;;5.53;2.60;;;;;;;11.69;60.73;98446.54;1732566;82;21047;-68
2021/05/06 04:35:39;;;;;;;10.35;2.60;;;;;;;11.70;60.85;98460.58;1736432;81;21726;-69
2021/05/06 04:38:22;;;;;;;5.20;2.10;;;;;;;11.72;60.88;98456.08;1735346;82;21003;-69
2021/05/06 04:55:14;;;;;;;5.22;2.77;;;;;;;11.90;60.79;98461.49;1732378;82;21176;-69
2021/05/06 04:58:14;;;;;;;6.95;2.72;;;;;;;11.97;60.92;98468.34;1722015;82;21169;-68
2021/05/06 05:03:37;;;;;;;9.48;2.33;;;;;;;12.04;60.44;98469.91;1690543;83;22199;-69
2021/05/06 05:06:07;;;;;;;5.40;2.52;;;;;;;12.03;60.47;98465.53;1667031;83;21183;-69
2021/05/06 05:08:48;;;;;;;6.70;2.35;;;;;;;12.03;60.64;98470.48;1718939;83;21157;-68
2021/05/06 05:14:02;;;;;;;5.37;2.65;;;;;;;12.04;60.54;98486.48;1718997;83;21172;-69
2021/05/06 05:25:34;;;;;;;12.18;2.22;;;;;;;12.08;61.03;98501.16;1733583;82;21634;-68
2021/05/06 05:28:05;;;;;;;5.72;2.55;;;;;;;12.06;61.25;98502.08;1732337;82;21643;-67
2021/05/06 05:30:42;;;;;;;10.43;2.65;;;;;;;12.07;61.37;98512.56;1732348;82;21184;-69
2021/05/06 05:33:18;;;;;;;7.05;3.37;;;;;;;12.08;61.19;98498.40;1734113;82;21700;-68
2021/05/06 05:38:52;;;;;;;6.15;2.77;;;;;;;12.04;61.70;98503.05;1738982;82;21134;-69
2021/05/06 05:55:54;;;;;;;11.12;4.00;;;;;;;12.11;62.16;98519.80;1734707;82;22742;-68
2021/05/06 05:58:26;;;;;;;10.10;3.58;;;;;;;12.12;62.24;98522.80;1679904;83;21157;-68
2021/05/06 06:01:15;;;;;;;12.90;4.50;;;;;;;12.13;62.78;98527.16;1708581;83;21113;-68
2021/05/06 06:03:49;;;;;;;10.23;3.12;;;;;;;12.20;62.94;98528.52;1708052;82;21112;-68
2021/05/06 06:06:21;;;;;;;10.75;2.60;;;;;;;12.28;63.09;98541.34;1708205;83;21110;-67
2021/05/06 06:09:15;;;;;;;9.70;3.60;;;;;;;12.31;62.46;98542.58;1702434;83;21145;-68
2021/05/06 06:12:10;;;;;;;17.37;4.35;;;;;;;12.30;62.37;98548.67;1706537;83;22093;-68
2021/05/06 06:15:01;;;;;;;7.00;3.10;;;;;;;12.27;62.86;98544.68;1708081;83;21152;-67
2021/05/06 06:17:42;;;;;;;10.10;3.05;;;;;;;12.25;62.63;98546.98;1706263;83;21169;-67
2021/05/06 06:20:21;;;;;;;7.03;3.00;;;;;;;12.23;62.81;98556.20;1706750;83;21122;-69
2021/05/06 06:22:53;;;;;;;14.53;4.33;;;;;;;12.24;63.12;98554.25;1695455;84;21374;-67
2021/05/06 06:25:41;;;;;;;9.28;3.30;;;;;;;12.29;63.51;98565.03;1692541;83;21125;-68
2021/05/06 06:28:13;;;;;;;10.28;3.67;;;;;;;12.34;63.22;98567.53;1690523;83;21142;-68
2021/05/06 06:34:20;;;;;;;6.35;3.55;;;;;;;12.40;63.25;98572.23;1717026;83;21129;-68
2021/05/06 06:36:55;;;;;;;10.87;3.10;;;;;;;12.40;63.41;98573.61;1670808;83;21602;-68
2021/05/06 06:39:26;;;;;;;7.95;3.65;;;;;;;12.37;63.70;98576.48;1718906;83;21221;-68
2021/05/06 06:42:08;;;;;;;11.08;3.75;;;;;;;12.37;63.84;98579.82;1718349;83;21571;-69
2021/05/06 06:44:54;;;;;;;15.68;3.42;;;;;;;12.37;64.37;98577.87;1673915;84;21162;-67
2021/05/06 06:47:23;;;;;;;9.40;3.17;;;;;;;12.37;64.47;98587.53;1692930;83;21118;-67
2021/05/06 06:50:09;;;;;;;8.03;3.50;;;;;;;12.36;64.85;98594.23;1717359;83;21142;-67
2021/05/06 06:52:53;;;;;;;7.60;3.42;;;;;;;12.35;65.46;98594.59;1718255;83;21221;-69
2021/05/06 06:55:29;;;;;;;15.78;5.08;;;;;;;12.31;66.06;98610.25;1717870;83;21689;-67
2021/05/06 06:58:25;;;;;;;7.33;4.25;;;;;;;12.28;66.85;98621.44;1718225;83;21173;-68
2021/05/06 07:01:02;;;;;;;9.45;3.62;;;;;;;12.29;68.51;98623.84;1718910;83;21141;-68
2021/05/06 07:03:36;;;;;;;8.80;3.50;;;;;;;12.28;69.01;98635.25;1679004;85;21211;-66
2021/05/06 07:06:07;;;;;;;8.45;2.77;;;;;;;12.25;68.91;98622.94;1719148;83;21146;-67
2021/05/06 07:08:39;;;;;;;6.97;2.67;;;;;;;12.23;68.77;98616.17;1692634;83;21146;-67
2021/05/06 07:11:17;;;;;;;6.87;2.37;;;;;;;12.18;68.76;98624.12;1712709;83;21113;-66
2021/05/06 07:14:04;;;;;;;4.65;2.40;;;;;;;12.16;68.58;98622.30;1716506;83;21193;-67
2021/05/06 07:16:34;;;;;;;7.97;2.85;;;;;;;12.12;68.70;98624.97;1716139;83;21365;-67
2021/05/06 07:19:05;;;;;;;3.45;2.12;;;;;;;12.07;68.99;98637.61;1719077;83;21263;-67
2021/05/06 07:21:38;;;;;;;4.47;1.90;;;;;;;11.99;69.78;98650.39;1713588;83;21109;-69
2021/05/06 07:24:24;;;;;;;7.40;1.70;;;;;;;11.86;70.30;98666.77;1683218;84;21595;-68
2021/05/06 07:27:18;;;;;;;4.40;1.80;;;;;;;11.66;70.42;98667.98;1693712;84;21118;-70
2021/05/06 07:29:54;;;;;;;6.35;1.40;;;;;;;11.53;69.71;98679.62;1690241;84;21428;-68
2021/05/06 07:32:30;;;;;;;11.78;1.45;;;;;;;11.40;69.69;98679.63;1691919;84;21678;-67
2021/05/06 07:35:04;;;;;;;7.35;2.02;;;;;;;11.34;70.11;98686.55;1698647;84;21585;-67
2021/05/06 07:37:39;;;;;;;5.58;1.70;;;;;;;11.29;69.86;98694.45;1695420;84;21130;-67
2021/05/06 07:40:12;;;;;;;5.60;1.60;;;;;;;11.22;69.88;98701.14;1694694;84;21165;-67
2021/05/06 07:42:48;;;;;;;5.92;1.30;;;;;;;11.18;70.42;98696.06;1698988;84;21792;-68
2021/05/06 07:45:39;;;;;;;5.00;1.32;;;;;;;11.15;70.58;98714.12;1689160;84;21134;-67
2021/05/06 07:48:12;;;;;;;5.58;1.00;;;;;;;11.08;69.99;98713.31;1695133;84;21189;-68
2021/05/06 07:50:58;;;;;;;3.92;1.32;;;;;;;10.98;69.93;98726.16;1695661;84;21129;-68
2021/05/06 07:53:50;;;;;;;2.08;1.00;;;;;;;10.87;70.16;98717.52;1705641;84;21197;-68
2021/05/06 07:56:34;;;;;;;4.80;1.57;;;;;;;10.89;71.02;98723.50;1698071;82;21430;-68
2021/05/06 07:59:06;;;;;;;5.37;1.15;;;;;;;10.91;70.88;98733.61;1697414;83;21633;-68
2021/05/06 08:01:42;;;;;;;4.10;1.50;;;;;;;10.98;71.51;98733.61;1701232;84;21153;-68
2021/05/06 08:04:13;;;;;;;2.08;1.40;;;;;;;11.16;71.68;98734.20;1705610;84;21134;-67
2021/05/06 08:06:48;;;;;;;7.65;2.70;;;;;;;11.37;72.10;98724.45;1706714;84;21158;-69
2021/05/06 08:09:26;;;;;;;3.65;1.60;;;;;;;11.64;72.13;98726.84;1701636;84;21570;-69
2021/05/06 08:12:18;;;;;;;2.75;1.22;;;;;;;11.78;71.20;98725.11;1685032;84;21134;-69
2021/05/06 08:14:49;;;;;;;2.85;1.40;;;;;;;11.76;68.93;98729.59;1702806;84;21186;-68
2021/05/06 08:17:23;;;;;;;4.03;1.10;;;;;;;11.76;69.35;98726.03;1701984;83;21154;-68
2021/05/06 08:19:58;;;;;;;2.40;1.60;;;;;;;11.80;68.61;98731.88;1690649;83;21569;-68
2021/05/06 08:22:44;;;;;;;3.95;1.52;;;;;;;11.81;68.60;98734.06;1693420;83;21150;-68
2021/05/06 08:25:15;;;;;;;2.60;1.75;;;;;;;11.86;68.20;98741.30;1710525;83;21205;-68
2021/05/06 08:27:47;;;;;;;4.33;1.32;;;;;;;11.88;67.82;98745.33;1702727;83;21138;-68
2021/05/06 08:30:20;;;;;;;6.10;1.42;;;;;;;11.85;67.41;98753.50;1703497;83;21122;-68
2021/05/06 08:33:12;;;;;;;2.02;1.10;;;;;;;11.79;67.61;98763.39;1697973;83;21709;-69
2021/05/06 08:35:49;;;;;;;3.12;1.10;;;;;;;11.72;66.57;98773.42;1698707;83;21178;-68
2021/05/06 08:38:21;;;;;;;2.70;1.15;;;;;;;11.65;66.82;98761.58;1677675;83;21198;-66
2021/05/06 08:40:56;;;;;;;5.90;2.85;;;;;;;11.64;66.88;98771.80;1703228;83;21125;-67
2021/05/06 08:43:53;;;;;;;5.37;2.87;;;;;;;11.63;67.29;98777.11;1705043;83;21205;-66
2021/05/06 08:47:01;;;;;;;4.28;1.40;;;;;;;11.68;67.08;98774.11;1698579;83;21137;-68
2021/05/06 08:49:20;;;;;;;2.47;1.40;;;;;;;11.77;67.30;98782.84;1702448;83;21378;-68
2021/05/06 08:51:53;;;;;;;2.85;1.20;;;;;;;11.87;67.20;98793.42;1698162;83;21605;-68
2021/05/06 08:54:22;;;;;;;2.80;1.12;;;;;;;11.93;66.92;98800.88;1672201;83;21116;-67
2021/05/06 08:56:56;;;;;;;2.37;1.07;;;;;;;11.99;66.22;98804.21;1698126;83;21183;-69
2021/05/06 08:59:26;;;;;;;3.58;1.10;;;;;;;12.04;66.04;98807.52;1697867;83;21153;-68
2021/05/06 09:02:19;;;;;;;3.02;1.27;;;;;;;12.13;65.70;98806.05;1699921;83;22105;-67
2021/05/06 09:04:51;;;;;;;2.60;1.43;;;;;;;12.28;66.51;98808.66;1705790;83;21475;-68
2021/05/06 09:07:22;;;;;;;1.45;1.20;;;;;;;12.38;66.31;98801.86;1704011;83;21169;-67
2021/05/06 09:10:03;;;;;;;1.20;1.05;;;;;;;12.45;65.59;98801.27;1696935;83;21176;-67
2021/05/06 09:12:38;;;;;;;1.95;1.27;;;;;;;12.56;65.71;98807.08;1700921;83;22167;-69
2021/05/06 09:15:18;;;;;;;3.22;1.15;;;;;;;12.71;65.25;98801.38;1699258;83;21175;-68
2021/05/06 09:17:53;;;;;;;4.92;1.27;;;;;;;12.93;65.23;98791.50;1699953;83;21801;-68
2021/05/06 09:20:48;;;;;;;2.75;1.30;;;;;;;13.17;62.96;98793.91;1700973;83;21267;-68
2021/05/06 09:23:20;;;;;;;3.90;1.65;;;;;;;13.40;63.83;98801.00;1698707;83;21258;-68
2021/05/06 09:25:48;;;;;;;3.60;1.17;;;;;;;13.60;63.33;98799.15;1696774;84;21557;-70
2021/05/06 09:28:23;;;;;;;3.40;1.65;;;;;;;13.75;61.82;98801.67;1689703;84;21125;-68
2021/05/06 09:31:07;;;;;;;4.67;1.50;;;;;;;13.83;61.16;98804.05;1693582;82;21657;-68
2021/05/06 09:33:47;;;;;;;2.20;1.22;;;;;;;13.89;60.75;98809.31;1696274;84;21155;-66
2021/05/06 09:36:25;;;;;;;2.22;1.50;;;;;;;13.95;59.47;98818.94;1690978;84;21137;-67
2021/05/06 09:38:56;;;;;;;10.30;2.12;;;;;;;13.94;57.72;98818.13;1692301;84;21126;-67
2021/05/06 09:41:33;;;;;;;6.92;1.50;;;;;;;13.89;57.41;98821.77;1676337;84;22384;-67
2021/05/06 09:44:24;;;;;;;4.95;1.50;;;;;;;13.84;56.42;98819.48;1681055;84;21674;-68
2021/05/06 09:47:18;;;;;;;4.40;1.52;;;;;;;13.91;56.77;98826.34;1696845;84;21367;-68
2021/05/06 09:50:00;;;;;;;1.90;1.30;;;;;;;14.04;56.51;98832.59;1685226;84;21141;-69
2021/05/06 09:52:57;;;;;;;6.87;1.57;;;;;;;14.12;56.00;98823.28;1699921;84;21141;-68
2021/05/06 09:55:47;;;;;;;3.75;1.75;;;;;;;14.16;55.69;98830.29;1702109;83;21793;-68
2021/05/06 09:58:28;;;;;;;2.70;2.00;;;;;;;14.17;55.75;98834.08;1702237;83;21192;-67
2021/05/06 10:01:13;;;;;;;5.78;1.50;;;;;;;14.24;55.80;98838.98;1701347;84;21260;-68
2021/05/06 10:03:45;;;;;;;3.40;1.60;;;;;;;14.34;55.07;98841.19;1700001;83;21173;-69
2021/05/06 10:06:21;;;;;;;2.30;1.50;;;;;;;14.46;54.78;98844.41;1700354;84;21208;-68
2021/05/06 10:09:05;;;;;;;4.95;1.55;;;;;;;14.51;52.50;98846.09;1698676;83;21608;-68
2021/05/06 10:11:58;;;;;;;15.55;2.10;;;;;;;14.46;53.36;98850.53;1699842;84;21161;-68
2021/05/06 10:14:36;;;;;;;3.58;1.87;;;;;;;14.51;53.40;98850.82;1705287;83;21574;-68
2021/05/06 10:17:06;;;;;;;2.52;1.45;;;;;;;14.58;53.53;98857.91;1702072;84;21193;-67
2021/05/06 10:19:43;;;;;;;4.55;1.57;;;;;;;14.57;53.07;98855.71;1695493;84;21122;-68
2021/05/06 10:22:19;;;;;;;3.33;1.87;;;;;;;14.57;52.26;98852.13;1701074;83;21448;-67
2021/05/06 10:24:55;;;;;;;3.55;1.75;;;;;;;14.57;51.69;98853.52;1687092;83;21543;-68
2021/05/06 10:27:26;;;;;;;8.13;2.35;;;;;;;14.60;52.61;98856.36;1692177;83;21210;-67
2021/05/06 10:30:04;;;;;;;5.78;1.82;;;;;;;14.78;52.34;98861.49;1690422;83;21586;-67
2021/05/06 10:32:35;;;;;;;5.80;1.92;;;;;;;14.90;50.68;98859.76;1693836;84;21126;-67
2021/05/06 10:35:11;;;;;;;3.63;1.70;;;;;;;14.76;49.71;98867.16;1672505;84;21215;-67
2021/05/06 10:37:56;;;;;;;7.97;2.30;;;;;;;14.76;49.71;98867.16;1680007;85;21688;-69
2021/05/06 10:40:34;;;;;;;8.05;1.70;;;;;;;14.64;49.90;98868.92;1718147;83;21267;-67
2021/05/06 10:43:29;;;;;;;5.40;1.60;;;;;;;14.57;48.15;98870.95;1643586;87;21176;-68
2021/05/06 10:46:11;;;;;;;5.73;1.30;;;;;;;14.43;48.68;98873.43;1695393;84;21248;-71
2021/05/06 10:49:02;;;;;;;4.42;1.85;;;;;;;14.38;48.97;98878.65;1670457;84;22121;-67
2021/05/06 10:51:48;;;;;;;5.50;1.30;;;;;;;14.34;49.35;98877.21;1718858;83;21146;-68
2021/05/06 10:54:35;;;;;;;5.28;1.52;;;;;;;14.42;47.56;98878.73;1716387;83;21165;-67
2021/05/06 10:57:21;;;;;;;3.08;1.52;;;;;;;14.44;47.99;98881.95;1716751;83;21788;-69
2021/05/06 10:59:55;;;;;;;5.35;1.67;;;;;;;14.55;47.67;98879.43;1717756;83;21176;-68
2021/05/06 11:02:49;;;;;;;1.92;1.20;;;;;;;14.72;47.81;98878.20;1690194;84;22211;-66
2021/05/06 11:05:28;;;;;;;58.20;6.78;;;;;;;14.99;49.11;98877.57;1690220;83;21196;-68
2021/05/06 11:08:23;;;;;;;2.33;1.35;;;;;;;15.22;46.77;98877.61;1717547;83;21233;-68
2021/05/06 11:11:04;;;;;;;5.25;1.40;;;;;;;15.35;46.62;98874.68;1715988;83;21114;-68
2021/05/06 11:14:10;;;;;;;4.55;1.07;;;;;;;15.46;45.79;98872.89;1718366;83;22189;-69
2021/05/06 11:16:44;;;;;;;2.83;1.22;;;;;;;15.54;46.60;98871.84;1718264;83;22520;-68
2021/05/06 11:19:14;;;;;;;2.62;1.10;;;;;;;15.76;43.68;98868.65;1715577;83;21228;-66
2021/05/06 11:21:45;;;;;;;3.50;1.05;;;;;;;15.73;44.31;98878.50;1692828;83;21130;-68
2021/05/06 11:24:26;;;;;;;15.53;2.35;;;;;;;15.79;44.87;98877.62;1702828;83;21154;-68
2021/05/06 11:27:15;;;;;;;14.80;2.37;;;;;;;15.88;44.98;98882.32;1700006;84;21118;-68
2021/05/06 11:29:48;;;;;;;2.30;1.57;;;;;;;15.88;43.45;98888.48;1700578;84;21211;-68
2021/05/06 11:32:32;;;;;;;3.50;1.20;;;;;;;15.78;43.36;98879.59;1700011;84;21575;-67
2021/05/06 11:35:06;;;;;;;1030.95;142.40;;;;;;;15.81;43.23;98877.45;1700498;84;21185;-67
2021/05/06 11:37:44;;;;;;;4.03;1.72;;;;;;;15.89;43.26;98884.52;1694750;84;21135;-69
2021/05/06 11:40:16;;;;;;;3.92;2.08;;;;;;;16.00;42.34;98895.23;1693618;84;21165;-67
2021/05/06 11:42:50;;;;;;;2.20;1.20;;;;;;;16.04;43.24;98893.33;1697395;82;21149;-68
2021/05/06 11:45:31;;;;;;;3.15;1.40;;;;;;;16.09;43.21;98893.59;1700532;84;21193;-67
2021/05/06 11:48:05;;;;;;;1.55;1.10;;;;;;;16.11;43.15;98886.27;1696004;84;21208;-67
2021/05/06 11:50:40;;;;;;;1.80;1.25;;;;;;;16.05;42.26;98897.70;1697623;84;21603;-67
2021/05/06 11:53:19;;;;;;;3.75;1.12;;;;;;;16.01;41.30;98894.66;1692686;84;21181;-68
2021/05/06 11:55:50;;;;;;;2.15;1.00;;;;;;;15.98;41.45;98900.94;1681943;84;21573;-67
2021/05/06 11:58:41;;;;;;;2.47;1.10;;;;;;;15.94;41.11;98898.09;1677422;84;21570;-67
2021/05/06 12:01:11;;;;;;;8.38;1.40;;;;;;;15.92;41.76;98899.05;1690629;84;21570;-69
2021/05/06 12:03:55;;;;;;;1.75;1.05;;;;;;;15.94;41.46;98898.09;1681835;84;21233;-67
2021/05/06 12:06:37;;;;;;;5.92;1.30;;;;;;;15.94;40.90;98896.13;1680860;84;21199;-68
2021/05/06 12:09:10;;;;;;;2.05;0.90;;;;;;;15.97;41.14;98891.79;1685516;84;21367;-68
2021/05/06 12:11:41;;;;;;;20.45;2.83;;;;;;;15.98;41.11;98892.02;1690209;84;21201;-68
2021/05/06 12:14:15;;;;;;;1.85;1.17;;;;;;;16.01;41.62;98884.36;1687471;84;21181;-68
2021/05/06 12:16:58;;;;;;;2.72;0.90;;;;;;;16.16;41.24;98888.73;1690499;84;21196;-68
2021/05/06 12:19:32;;;;;;;1.37;0.78;;;;;;;16.28;40.47;98883.55;1690769;83;21594;-68
2021/05/06 12:22:06;;;;;;;6.97;1.27;;;;;;;16.28;40.30;98891.31;1694637;84;22137;-69
2021/05/06 12:24:54;;;;;;;3.80;0.90;;;;;;;16.30;39.56;98892.33;1699667;83;21165;-69
2021/05/06 12:27:31;;;;;;;4.12;0.93;;;;;;;16.35;39.16;98887.83;1693271;84;21172;-66
2021/05/06 12:30:11;;;;;;;2.85;1.45;;;;;;;16.44;38.64;98893.13;1693771;84;21156;-66
2021/05/06 12:32:48;;;;;;;1.60;1.10;;;;;;;16.41;38.11;98889.11;1689667;84;21739;-68
2021/05/06 12:35:17;;;;;;;4.05;1.32;;;;;;;16.22;38.15;98872.55;1677848;84;21313;-69
2021/05/06 12:37:50;;;;;;;4.58;1.17;;;;;;;15.94;38.59;98891.96;1675376;84;21185;-69
2021/05/06 12:40:26;;;;;;;8.83;1.85;;;;;;;15.83;39.03;98892.38;1689142;84;21117;-67
2021/05/06 12:43:02;;;;;;;3.35;1.20;;;;;;;15.77;40.17;98886.33;1694119;84;21215;-69
2021/05/06 12:45:31;;;;;;;6.70;1.20;;;;;;;15.78;40.13;98879.59;1660017;84;22204;-68
2021/05/06 12:48:01;;;;;;;17.30;1.62;;;;;;;15.77;40.58;98877.19;1684650;84;21213;-67
2021/05/06 12:50:36;;;;;;;22.55;3.87;;;;;;;15.72;40.45;98883.05;1699082;83;21202;-67
2021/05/06 12:53:08;;;;;;;2.17;1.20;;;;;;;15.64;40.68;98884.91;1702182;84;21202;-66
2021/05/06 12:55:44;;;;;;;4.40;1.40;;;;;;;15.55;40.53;98892.09;1702831;84;21764;-67
2021/05/06 12:58:20;;;;;;;2.12;1.30;;;;;;;15.38;40.16;98885.85;1689035;84;21161;-69
2021/05/06 13:01:11;;;;;;;12.68;2.25;;;;;;;15.25;40.87;98887.19;1679128;84;21649;-68
2021/05/06 13:03:44;;;;;;;3.95;1.62;;;;;;;15.27;41.02;98889.80;1682188;84;21178;-67
2021/05/06 13:06:19;;;;;;;7.35;1.72;;;;;;;15.33;41.45;98876.44;1696271;84;21167;-68
2021/05/06 13:08:51;;;;;;;3.42;1.10;;;;;;;15.53;41.78;98868.86;1673983;84;21172;-67
2021/05/06 13:11:26;;;;;;;3.35;1.47;;;;;;;15.83;40.30;98868.77;1687425;84;21157;-67
2021/05/06 13:13:59;;;;;;;2.67;1.25;;;;;;;15.99;40.49;98873.39;1694125;84;22132;-67
2021/05/06 13:16:48;;;;;;;9.50;1.70;;;;;;;16.27;39.80;98869.45;1697592;84;21819;-68
2021/05/06 13:19:36;;;;;;;3.60;1.20;;;;;;;16.53;39.42;98872.78;1697073;84;21718;-68
2021/05/06 13:22:33;;;;;;;3.08;1.35;;;;;;;16.66;38.60;98874.76;1697372;84;21176;-69
2021/05/06 13:25:01;;;;;;;5.62;0.93;;;;;;;16.80;37.68;98876.12;1654020;85;21688;-66
2021/05/06 13:27:29;;;;;;;3.90;1.98;;;;;;;16.79;37.16;98878.09;1633206;85;21210;-67
2021/05/06 13:30:06;;;;;;;7.62;1.70;;;;;;;16.71;37.24;98889.50;1650842;85;25311;-68
2021/05/06 13:33:21;;;;;;;1.87;1.05;;;;;;;16.48;36.63;98883.45;1648666;86;21166;-68
2021/05/06 13:36:18;;;;;;;3.58;1.10;;;;;;;16.19;37.01;98885.20;1649956;86;21587;-68
2021/05/06 13:39:12;;;;;;;5.62;1.52;;;;;;;15.96;37.25;98883.83;1686784;83;21202;-71
2021/05/06 13:42:21;;;;;;;5.10;1.07;;;;;;;15.81;37.58;98885.78;1682088;83;21139;-67
2021/05/06 13:45:07;;;;;;;6.70;1.62;;;;;;;15.72;37.30;98891.38;1710831;83;21580;-69
2021/05/06 13:47:36;;;;;;;2.02;1.65;;;;;;;15.75;37.43;98885.89;1686361;83;21207;-69
2021/05/06 13:50:11;;;;;;;4.45;1.22;;;;;;;15.77;37.18;98891.06;1684331;83;21203;-68
2021/05/06 13:52:44;;;;;;;1.75;1.12;;;;;;;15.75;37.71;98891.44;1684337;83;21560;-68
2021/05/06 13:55:16;;;;;;;7.00;1.20;;;;;;;15.70;37.32;98883.42;1710694;83;21825;-69
2021/05/06 13:57:49;;;;;;;6.62;1.12;;;;;;;15.66;37.44;98886.73;1682982;84;21643;-67
2021/05/06 14:00:23;;;;;;;3.02;0.93;;;;;;;15.63;37.00;98882.71;1674141;84;21532;-67
2021/05/06 14:03:10;;;;;;;2.35;0.90;;;;;;;15.68;37.08;98887.95;1820098;77;23388;-67
2021/05/06 14:05:40;;;;;;;8.35;0.95;;;;;;;15.74;36.94;98891.23;1796588;79;21118;-68
2021/05/06 14:08:14;;;;;;;3.45;1.35;;;;;;;15.86;36.17;98893.02;1790538;79;22176;-68
2021/05/06 14:10:55;;;;;;;2.77;1.30;;;;;;;15.93;36.16;98895.89;1791564;79;21123;-68
2021/05/06 14:13:26;;;;;;;4.42;1.87;;;;;;;15.92;36.11;98894.88;1779955;80;21546;-67
2021/05/06 14:15:55;;;;;;;3.12;1.10;;;;;;;15.87;36.04;98896.00;1786611;79;21145;-68
2021/05/06 14:18:27;;;;;;;8.00;1.55;;;;;;;15.81;35.53;98895.50;1786417;79;21138;-68
2021/05/06 14:21:01;;;;;;;9.23;1.50;;;;;;;15.77;36.02;98893.84;1785852;79;21971;-69
2021/05/06 14:23:44;;;;;;;2.42;1.40;;;;;;;15.85;36.31;98894.78;1779006;79;20992;-68
2021/05/06 14:26:07;;;;;;;4.08;1.50;;;;;;;16.00;36.05;98897.23;1787330;79;21157;-67
2021/05/06 14:28:45;;;;;;;10.23;1.80;;;;;;;16.13;34.60;98908.94;1796073;79;21133;-67
2021/05/06 14:31:21;;;;;;;9.20;2.22;;;;;;;16.21;34.22;98904.28;1784867;79;21110;-68
2021/05/06 14:34:12;;;;;;;10.60;2.80;;;;;;;16.25;34.06;98905.96;1790947;79;21213;-68
2021/05/06 14:36:40;;;;;;;7.90;2.17;;;;;;;16.32;33.96;98895.54;1797432;79;21145;-67
2021/05/06 14:39:14;;;;;;;4.87;1.62;;;;;;;16.32;34.31;98903.06;1778176;79;21165;-69
2021/05/06 14:41:47;;;;;;;6.05;1.98;;;;;;;16.31;33.23;98906.42;1730874;82;21161;-68
2021/05/06 14:44:23;;;;;;;137.65;17.02;;;;;;;16.28;33.51;98908.56;1729798;82;21114;-68
2021/05/06 14:47:06;;;;;;;7.47;2.02;;;;;;;16.26;33.05;98903.38;1728427;82;22687;-68
2021/05/06 14:49:36;;;;;;;4.78;1.82;;;;;;;16.27;33.34;98909.75;1727073;82;21697;-69
2021/05/06 14:52:07;;;;;;;4.05;1.87;;;;;;;16.26;32.55;98910.33;1701343;82;21160;-69
2021/05/06 14:54:38;;;;;;;6.50;2.00;;;;;;;16.21;33.15;98906.48;1723950;82;21563;-70
2021/05/06 14:57:16;;;;;;;7.65;1.75;;;;;;;16.20;33.37;98918.78;1691412;83;21166;-69
2021/05/06 14:59:48;;;;;;;7.03;1.90;;;;;;;16.17;32.40;98913.38;1682285;83;21189;-68
2021/05/06 15:02:36;;;;;;;22.62;2.40;;;;;;;16.08;32.46;98910.06;1700769;83;21202;-67
2021/05/06 15:05:09;;;;;;;19.05;2.75;;;;;;;16.02;32.96;98915.73;1734782;82;21166;-68
2021/05/06 15:07:40;;;;;;;8.90;3.08;;;;;;;16.01;33.45;98909.36;1731245;82;21150;-67
2021/05/06 15:10:16;;;;;;;10.00;1.80;;;;;;;16.00;33.30;98913.30;1715976;82;21127;-68
2021/05/06 15:12:48;;;;;;;5.60;1.67;;;;;;;16.00;33.12;98918.07;1723341;82;21425;-70
2021/05/06 15:15:20;;;;;;;6.70;2.30;;;;;;;15.98;33.50;98917.03;1732838;81;21616;-68
2021/05/06 15:17:53;;;;;;;8.88;2.08;;;;;;;15.87;32.38;98921.00;1734095;82;21202;-69
2021/05/06 15:20:52;;;;;;;8.98;2.05;;;;;;;15.76;32.26;98920.80;1733367;82;21135;-68
2021/05/06 15:23:46;;;;;;;3.70;1.92;;;;;;;15.69;32.09;98931.80;1730121;82;21559;-68
2021/05/06 15:26:24;;;;;;;730.98;95.05;;;;;;;15.64;32.02;98932.92;1712352;82;22193;-67
2021/05/06 15:28:56;;;;;;;6.00;2.33;;;;;;;15.63;32.45;98933.27;1729100;80;21207;-69
2021/05/06 15:31:53;;;;;;;10.43;2.52;;;;;;;15.64;31.78;98944.61;1733436;82;21154;-68
2021/05/06 15:34:44;;;;;;;6.30;2.22;;;;;;;15.60;31.54;98939.56;1733092;82;22117;-69